Cape Girardeau Regional Airport
KCGI : now visible

Airfield :











YOU CAN JOIN US ON...

 
LOGIN :

Register | Disclaimer

   EN    FR    IT 

 









Legend :    VFR   Marginal VFR   IFR   Intensive IFR   Very Intensive IFR
Visi :
Ceiling :
>= 8 km
>= 3000ft
5 to 8 km
1000 to 3000 ft
1500m to 5 km
500 to 1000 ft
800 to 1500m
200 to 500 ft
< 800m
< 200 ft
Symbols :   Thunderstorms  Fog  Heavy snow  Heavy precipitations  Wind > 20 kt






- Airport Elevation : 342 ft
- IATA code : CGI


KCGI - Cape Girardeau Regional

CURRENT METAR :
  • 250353Z AUTO 36003KT 10SM OVC028 10/05 A3007 RMK AO2 SLP184 T01000050

EXPIRED METARs :
  • 250342Z AUTO 36004KT 10SM OVC029 10/05 A3008 RMK AO2 T01000050
  • 250301Z AUTO 36005KT 10SM OVC030 10/04 A3009 RMK AO2 T01000044
  • 250253Z AUTO 36004KT 10SM OVC029 10/05 A3008 RMK AO2 SLP188 T01000050 53003
  • 250201Z AUTO 04009KT 10SM OVC029 10/04 A3007 RMK AO2 T01000044
  • 250136Z AUTO 04008KT 10SM OVC030 10/04 A3007 RMK AO2 T01000044

TAF KCGI
Valid from the 25 at 00:00 until the 26 at 00:00 UTC


242320Z 2500/2524 03008KT P6SM OVC025
TEMPO 2500/2504 4SM -DZ BR
FM250800 02007KT P6SM OVC015
FM251500 03008KT P6SM BKN025
KZME FIR / North America



MET'MAP, your aeronautical weather chart ! - Copyright ORBIFLY December 2007 - Disclaimer

ORBIFLY MET'MAP TEAM :

Programming & Development : Alexandra Zaïnal
Concept & original design : Baudouin d'Aumeries
Assistance for programming : Marc-Olivier Méhu
Technical & hardware support : Manuel Goepfert

Contact : metmap@orbifly.com




SOURCES & CREDITS :

   NOAA       Earth
Advisory